createdAt,value
2023-01-18T00:01:19.943Z,95384.94
2023-01-18T00:03:48.224Z,95386.16
2023-01-18T00:06:16.627Z,95386.44
2023-01-18T00:08:44.248Z,95382.75
2023-01-18T00:11:18.520Z,95381.94
2023-01-18T00:13:47.152Z,95379.38
2023-01-18T00:16:21.786Z,95366.72
2023-01-18T00:18:57.929Z,95381.25
2023-01-18T00:21:27.585Z,95382.88
2023-01-18T00:23:56.949Z,95382.59
2023-01-18T00:26:24.272Z,95389.00
2023-01-18T00:28:51.840Z,95375.69
2023-01-18T00:31:21.571Z,95379.59
2023-01-18T00:33:50.769Z,95378.38
2023-01-18T00:36:19.280Z,95370.59
2023-01-18T00:38:54.016Z,95368.84
2023-01-18T00:41:22.842Z,95368.44
2023-01-18T00:43:51.705Z,95367.28
2023-01-18T00:46:28.321Z,95358.97
2023-01-18T00:48:57.413Z,95356.00
2023-01-18T00:51:25.653Z,95349.44
2023-01-18T00:53:53.325Z,95350.13
2023-01-18T00:56:23.425Z,95342.97
2023-01-18T00:58:51.048Z,95342.19
2023-01-18T01:01:18.666Z,95345.47
2023-01-18T01:04:04.516Z,95342.19
2023-01-18T01:06:45.446Z,95330.91
2023-01-18T01:09:26.806Z,95332.13
2023-01-18T01:12:13.517Z,95328.72
2023-01-18T01:15:06.650Z,95324.50
2023-01-18T01:17:55.652Z,95331.03
2023-01-18T01:20:43.649Z,95326.69
2023-01-18T01:23:39.583Z,95328.31
2023-01-18T01:26:10.987Z,95326.44
2023-01-18T01:28:51.135Z,95314.72
2023-01-18T01:31:20.400Z,95321.00
2023-01-18T01:33:50.756Z,95315.81
2023-01-18T01:36:25.920Z,95320.19
2023-01-18T01:38:53.786Z,95304.09
2023-01-18T01:41:33.035Z,95303.56
2023-01-18T01:44:20.586Z,95295.44
2023-01-18T01:46:59.025Z,95289.19
2023-01-18T01:49:43.033Z,95296.84
2023-01-18T01:52:20.612Z,95300.38
2023-01-18T01:55:15.978Z,95302.41
2023-01-18T01:58:11.130Z,95295.88
2023-01-18T02:00:38.478Z,95306.59
2023-01-18T02:03:10.657Z,95312.59
2023-01-18T02:06:13.393Z,95315.88
2023-01-18T02:08:41.367Z,95313.13
2023-01-18T02:11:08.647Z,95310.72
2023-01-18T02:13:36.320Z,95311.91
2023-01-18T02:16:35.883Z,95307.16
2023-01-18T02:19:15.236Z,95315.06
2023-01-18T02:21:57.943Z,95315.31
2023-01-18T02:24:59.020Z,95310.13
2023-01-18T02:27:43.701Z,95306.22
2023-01-18T02:30:30.791Z,95305.81
2023-01-18T02:33:04.098Z,95299.81
2023-01-18T02:35:46.166Z,95301.19
2023-01-18T02:38:31.585Z,95298.84
2023-01-18T02:41:49.253Z,95295.31
2023-01-18T02:44:45.659Z,95289.47
2023-01-18T02:47:13.728Z,95285.13
2023-01-18T02:49:41.790Z,95281.47
2023-01-18T02:52:47.504Z,95282.13
2023-01-18T02:56:03.869Z,95291.91
2023-01-18T02:58:42.238Z,95294.91
2023-01-18T03:01:47.569Z,95294.78
2023-01-18T03:04:30.307Z,95302.25
2023-01-18T03:07:12.840Z,95303.78
2023-01-18T03:09:42.857Z,95298.16
2023-01-18T03:12:47.258Z,95300.63
2023-01-18T03:15:44.799Z,95294.41
2023-01-18T03:18:20.908Z,95298.84
2023-01-18T03:20:55.937Z,95296.84
2023-01-18T03:23:42.041Z,95296.28
2023-01-18T03:26:16.515Z,95289.88
2023-01-18T03:29:14.382Z,95285.94
2023-01-18T03:32:18.650Z,95292.19
2023-01-18T03:34:54.409Z,95287.47
2023-01-18T03:37:31.809Z,95279.81
2023-01-18T03:40:19.903Z,95273.16
2023-01-18T03:43:09.462Z,95271.81
2023-01-18T03:45:43.611Z,95252.50
2023-01-18T03:48:12.973Z,95233.63
2023-01-18T03:51:02.481Z,95217.44
2023-01-18T03:53:48.148Z,95196.25
2023-01-18T03:56:59.232Z,95170.16
2023-01-18T03:59:35.775Z,95159.06
2023-01-18T04:02:09.129Z,95129.31
2023-01-18T04:04:36.808Z,95134.63
2023-01-18T04:07:04.836Z,95177.03
2023-01-18T04:09:32.458Z,95211.78
2023-01-18T04:11:59.697Z,95211.66
2023-01-18T04:14:27.227Z,95207.16
2023-01-18T04:16:54.440Z,95221.13
2023-01-18T04:19:22.010Z,95220.75
2023-01-18T04:21:49.304Z,95229.69
2023-01-18T04:24:17.369Z,95228.06
2023-01-18T04:26:44.673Z,95222.78
2023-01-18T04:29:12.384Z,95213.66
2023-01-18T04:31:39.728Z,95197.78
2023-01-18T04:34:07.461Z,95194.13
2023-01-18T04:36:34.683Z,95197.38
2023-01-18T04:39:03.061Z,95189.09
2023-01-18T04:41:30.373Z,95182.16
2023-01-18T04:43:57.923Z,95175.50
2023-01-18T04:46:25.234Z,95182.16
2023-01-18T04:48:53.064Z,95188.13
2023-01-18T04:51:21.080Z,95181.47
2023-01-18T04:53:48.636Z,95186.63
2023-01-18T04:56:16.985Z,95191.91
2023-01-18T04:58:44.791Z,95188.38
2023-01-18T05:01:14.022Z,95194.66
2023-01-18T05:03:41.794Z,95198.19
2023-01-18T05:06:15.348Z,95195.88
2023-01-18T05:08:43.330Z,95201.00
2023-01-18T05:11:14.621Z,95191.63
2023-01-18T05:13:43.806Z,95195.44
2023-01-18T05:16:21.413Z,95199.59
2023-01-18T05:18:49.790Z,95202.69
2023-01-18T05:21:17.467Z,95206.19
2023-01-18T05:23:45.125Z,95206.44
2023-01-18T05:26:23.640Z,95220.16
2023-01-18T05:28:57.341Z,95226.25
2023-01-18T05:31:25.020Z,95240.38
2023-01-18T05:33:53.227Z,95242.97
2023-01-18T05:36:20.589Z,95250.94
2023-01-18T05:38:48.258Z,95251.50
2023-01-18T05:41:15.640Z,95242.53
2023-01-18T05:43:43.349Z,95252.06
2023-01-18T05:46:10.679Z,95250.94
2023-01-18T05:48:38.422Z,95240.38
2023-01-18T05:51:11.697Z,95238.66
2023-01-18T05:53:40.608Z,95246.09
2023-01-18T05:56:09.664Z,95252.00
2023-01-18T05:58:38.443Z,95235.28
2023-01-18T06:01:07.771Z,95213.34
2023-01-18T06:03:36.974Z,95205.88
2023-01-18T06:06:04.589Z,95196.50
2023-01-18T06:08:32.837Z,95199.25
2023-01-18T06:11:00.809Z,95203.59
2023-01-18T06:13:31.664Z,95218.66
2023-01-18T06:16:01.187Z,95225.34
2023-01-18T06:18:32.856Z,95225.56
2023-01-18T06:21:03.337Z,95223.41
2023-01-18T06:23:31.441Z,95230.19
2023-01-18T06:25:59.089Z,95241.06
2023-01-18T06:28:29.675Z,95246.00
2023-01-18T06:30:58.156Z,95240.03
2023-01-18T06:33:25.916Z,95243.00
2023-01-18T06:35:53.201Z,95255.78
2023-01-18T06:38:20.851Z,95252.81
2023-01-18T06:40:48.276Z,95245.44
2023-01-18T06:43:16.984Z,95241.66
2023-01-18T06:45:44.379Z,95241.66
2023-01-18T06:48:11.993Z,95239.44
2023-01-18T06:50:39.289Z,95234.28
2023-01-18T06:53:06.898Z,95222.06
2023-01-18T06:55:34.768Z,95220.69
2023-01-18T06:58:02.799Z,95239.72
2023-01-18T07:00:30.164Z,95241.91
2023-01-18T07:02:58.666Z,95252.50
2023-01-18T07:05:26.254Z,95246.63
2023-01-18T07:07:53.860Z,95250.56
2023-01-18T07:10:21.238Z,95260.31
2023-01-18T07:12:50.965Z,95264.13
2023-01-18T07:15:22.917Z,95272.03
2023-01-18T07:17:51.087Z,95261.69
2023-01-18T07:20:19.971Z,95257.19
2023-01-18T07:22:52.818Z,95258.41
2023-01-18T07:25:20.925Z,95270.22
2023-01-18T07:27:49.231Z,95276.22
2023-01-18T07:30:17.619Z,95275.53
2023-01-18T07:32:53.357Z,95279.59
2023-01-18T07:35:22.301Z,95276.63
2023-01-18T07:37:53.294Z,95274.81
2023-01-18T07:40:22.270Z,95261.28
2023-01-18T07:42:57.253Z,95258.28
2023-01-18T07:45:24.721Z,95249.16
2023-01-18T07:47:53.610Z,95249.13
2023-01-18T07:50:22.426Z,95255.16
2023-01-18T07:52:50.037Z,95247.47
2023-01-18T07:55:17.326Z,95258.72
2023-01-18T07:57:44.856Z,95269.59
2023-01-18T08:00:14.389Z,95275.06
2023-01-18T08:02:42.047Z,95284.31
2023-01-18T08:05:10.728Z,95277.38
2023-01-18T08:07:38.408Z,95275.25
2023-01-18T08:10:06.319Z,95280.53
2023-01-18T08:12:33.924Z,95279.84
2023-01-18T08:15:01.241Z,95284.53
2023-01-18T08:17:29.886Z,95284.38
2023-01-18T08:19:57.528Z,95279.56
2023-01-18T08:22:25.217Z,95257.47
2023-01-18T08:24:52.595Z,95255.53
2023-01-18T08:27:20.254Z,95249.97
2023-01-18T08:29:48.252Z,95263.03
2023-01-18T08:32:16.452Z,95277.34
2023-01-18T08:34:43.799Z,95278.97
2023-01-18T08:37:12.018Z,95286.31
2023-01-18T08:39:39.341Z,95303.72
2023-01-18T08:42:07.052Z,95307.31
2023-01-18T08:44:34.387Z,95299.03
2023-01-18T08:47:02.157Z,95300.72
2023-01-18T08:49:29.466Z,95308.13
2023-01-18T08:51:58.209Z,95294.63
2023-01-18T08:54:25.464Z,95300.84
2023-01-18T08:56:53.249Z,95307.41
2023-01-18T08:59:21.134Z,95309.59
2023-01-18T09:01:48.853Z,95314.22
2023-01-18T09:04:16.199Z,95315.31
2023-01-18T09:06:44.870Z,95332.56
2023-01-18T09:09:12.881Z,95338.25
2023-01-18T09:11:40.497Z,95339.81
2023-01-18T09:14:08.061Z,95328.13
2023-01-18T09:16:36.285Z,95326.91
2023-01-18T09:19:06.534Z,95317.00
2023-01-18T09:21:34.482Z,95321.19
2023-01-18T09:24:02.412Z,95336.84
2023-01-18T09:26:30.735Z,95338.75
2023-01-18T09:28:58.481Z,95334.66
2023-01-18T09:31:28.814Z,95349.38
2023-01-18T09:34:09.534Z,95353.09
2023-01-18T09:36:45.101Z,95343.81
2023-01-18T09:39:12.377Z,95342.09
2023-01-18T09:41:44.804Z,95332.94
2023-01-18T09:44:36.284Z,95350.66
2023-01-18T09:47:24.679Z,95349.56
2023-01-18T09:50:02.490Z,95348.91
2023-01-18T09:52:33.138Z,95352.84
2023-01-18T09:55:37.390Z,95365.91
2023-01-18T09:58:38.015Z,95375.97
2023-01-18T10:01:23.737Z,95379.50
2023-01-18T10:04:03.072Z,95388.59
2023-01-18T10:07:00.508Z,95398.41
2023-01-18T10:09:42.050Z,95400.69
2023-01-18T10:12:17.962Z,95407.78
2023-01-18T10:14:57.804Z,95426.00
2023-01-18T10:17:41.605Z,95420.00
2023-01-18T10:20:35.727Z,95439.88
2023-01-18T10:23:54.954Z,95441.88
2023-01-18T10:26:31.732Z,95436.84
2023-01-18T10:29:17.118Z,95439.56
2023-01-18T10:32:11.068Z,95445.03
2023-01-18T10:34:48.297Z,95447.16
2023-01-18T10:37:46.780Z,95451.25
2023-01-18T10:40:15.466Z,95450.75
2023-01-18T10:42:48.042Z,95454.56
2023-01-18T10:45:22.317Z,95463.28
2023-01-18T10:47:53.013Z,95456.59
2023-01-18T10:50:44.170Z,95464.91
2023-01-18T10:53:24.249Z,95477.16
2023-01-18T10:56:18.073Z,95481.69
2023-01-18T10:58:58.031Z,95468.75
2023-01-18T11:01:36.225Z,95468.75
2023-01-18T11:04:22.900Z,95479.47
2023-01-18T11:06:56.609Z,95471.19
2023-01-18T11:09:55.726Z,95494.16
2023-01-18T11:12:42.380Z,95482.88
2023-01-18T11:15:16.079Z,95494.31
2023-01-18T11:18:02.064Z,95487.34
2023-01-18T11:20:50.947Z,95494.53
2023-01-18T11:23:37.790Z,95503.63
2023-01-18T11:26:19.216Z,95498.25
2023-01-18T11:28:55.047Z,95496.25
2023-01-18T11:31:26.087Z,95498.03
2023-01-18T11:33:59.186Z,95498.84
2023-01-18T11:36:42.705Z,95497.84
2023-01-18T11:39:26.922Z,95503.72
2023-01-18T11:42:21.761Z,95506.47
2023-01-18T11:44:49.324Z,95511.69
2023-01-18T11:47:31.313Z,95520.25
2023-01-18T11:50:49.185Z,95517.00
2023-01-18T11:54:04.510Z,95520.69
2023-01-18T11:56:51.688Z,95527.63
2023-01-18T11:59:30.590Z,95535.25
2023-01-18T12:02:56.272Z,95550.34
2023-01-18T12:05:45.908Z,95555.97
2023-01-18T12:08:38.564Z,95570.19
2023-01-18T12:11:21.875Z,95584.81
2023-01-18T12:14:01.195Z,95580.03
2023-01-18T12:17:08.452Z,95587.78
2023-01-18T12:20:21.110Z,95604.50
2023-01-18T12:23:23.552Z,95603.13
2023-01-18T12:26:12.302Z,95604.41
2023-01-18T12:29:06.529Z,95615.38
2023-01-18T12:32:21.078Z,95614.72
2023-01-18T12:35:24.813Z,95626.91
2023-01-18T12:38:17.510Z,95636.28
2023-01-18T12:41:19.115Z,95664.38
2023-01-18T12:44:14.069Z,95660.03
2023-01-18T12:46:52.009Z,95671.09
2023-01-18T12:49:22.095Z,95659.81
2023-01-18T12:52:12.778Z,95678.47
2023-01-18T12:54:55.672Z,95672.09
2023-01-18T12:57:26.056Z,95671.66
2023-01-18T13:00:21.601Z,95680.25
2023-01-18T13:02:57.178Z,95687.25
2023-01-18T13:06:04.147Z,95695.00
2023-01-18T13:09:05.528Z,95698.09
2023-01-18T13:11:43.395Z,95723.38
2023-01-18T13:14:33.601Z,95719.91
2023-01-18T13:17:45.930Z,95723.53
2023-01-18T13:20:25.887Z,95727.31
2023-01-18T13:23:26.104Z,95734.09
2023-01-18T13:26:29.551Z,95731.94
2023-01-18T13:29:10.330Z,95743.13
2023-01-18T13:31:38.628Z,95740.41
2023-01-18T13:34:47.748Z,95755.19
2023-01-18T13:37:48.432Z,95760.03
2023-01-18T13:40:41.449Z,95775.38
2023-01-18T13:43:37.018Z,95764.41
2023-01-18T13:46:07.250Z,95774.56
2023-01-18T13:48:59.179Z,95795.59
2023-01-18T13:51:41.993Z,95783.25
2023-01-18T13:54:21.945Z,95786.22
2023-01-18T13:57:01.491Z,95779.09
2023-01-18T13:59:47.750Z,95788.22
2023-01-18T14:02:42.726Z,95802.22
2023-01-18T14:05:34.383Z,95806.88
2023-01-18T14:08:03.106Z,95814.50
2023-01-18T14:10:36.739Z,95832.19
2023-01-18T14:13:14.135Z,95843.34
2023-01-18T14:15:53.527Z,95846.72
2023-01-18T14:18:26.506Z,95859.28
2023-01-18T14:21:09.274Z,95874.84
2023-01-18T14:24:32.355Z,95870.09
2023-01-18T14:27:01.238Z,95869.50
2023-01-18T14:30:26.038Z,95882.63
2023-01-18T14:33:11.411Z,95868.03
2023-01-18T14:35:39.214Z,95886.38
2023-01-18T14:38:18.920Z,95886.72
2023-01-18T14:40:58.391Z,95893.97
2023-01-18T14:43:44.977Z,95906.88
2023-01-18T14:46:25.959Z,95901.41
2023-01-18T14:49:01.936Z,95904.63
2023-01-18T14:51:30.666Z,95913.81
2023-01-18T14:54:02.166Z,95920.88
2023-01-18T14:56:34.962Z,95925.66
2023-01-18T14:59:23.147Z,95929.41
2023-01-18T15:02:00.476Z,95942.22
2023-01-18T15:04:34.945Z,95943.25
2023-01-18T15:07:17.409Z,95945.25
2023-01-18T15:09:47.155Z,95959.53
2023-01-18T15:12:24.155Z,95953.91
2023-01-18T15:14:51.858Z,95975.06
2023-01-18T15:17:26.209Z,95960.41
2023-01-18T15:20:05.342Z,95968.63
2023-01-18T15:22:38.233Z,95972.50
2023-01-18T15:25:25.354Z,95981.69
2023-01-18T15:27:54.355Z,96000.00
2023-01-18T15:30:25.045Z,95994.56
2023-01-18T15:32:58.468Z,95984.84
2023-01-18T15:35:26.952Z,95994.31
2023-01-18T15:37:54.546Z,96003.84
2023-01-18T15:40:27.136Z,96015.81
2023-01-18T15:43:02.439Z,96011.25
2023-01-18T15:45:49.664Z,96014.53
2023-01-18T15:48:22.598Z,96018.53
2023-01-18T15:50:55.600Z,96020.75
2023-01-18T15:53:34.652Z,96028.59
2023-01-18T15:56:27.884Z,96022.63
2023-01-18T15:58:59.554Z,96029.34
2023-01-18T16:01:34.083Z,96034.03
2023-01-18T16:04:04.180Z,96041.34
2023-01-18T16:06:37.178Z,96041.56
2023-01-18T16:09:12.894Z,96038.84
2023-01-18T16:11:52.094Z,96041.81
2023-01-18T16:14:28.624Z,96039.91
2023-01-18T16:17:15.455Z,96046.38
2023-01-18T16:19:48.509Z,96042.88
2023-01-18T16:22:35.507Z,96049.91
2023-01-18T16:25:11.172Z,96057.88
2023-01-18T16:27:52.771Z,96063.31
2023-01-18T16:30:25.773Z,96084.69
2023-01-18T16:32:53.464Z,96088.31
2023-01-18T16:35:23.770Z,96112.88
2023-01-18T16:37:52.161Z,96104.53
2023-01-18T16:40:23.372Z,96114.28
2023-01-18T16:43:05.049Z,96128.03
2023-01-18T16:45:38.607Z,96117.69
2023-01-18T16:48:09.004Z,96121.34
2023-01-18T16:50:38.021Z,96120.53
2023-01-18T16:53:05.743Z,96135.66
2023-01-18T16:55:33.149Z,96139.19
2023-01-18T16:58:01.139Z,96148.81
2023-01-18T17:00:52.013Z,96172.44
2023-01-18T17:03:19.982Z,96189.13
2023-01-18T17:05:47.730Z,96189.34
2023-01-18T17:08:15.719Z,96191.25
2023-01-18T17:10:47.523Z,96193.81
2023-01-18T17:13:16.027Z,96196.03
2023-01-18T17:15:45.581Z,96210.97
2023-01-18T17:18:25.825Z,96204.13
2023-01-18T17:20:55.033Z,96213.78
2023-01-18T17:23:25.681Z,96219.56
2023-01-18T17:25:53.043Z,96216.47
2023-01-18T17:28:20.747Z,96213.19
2023-01-18T17:30:50.198Z,96229.19
2023-01-18T17:33:24.931Z,96233.63
2023-01-18T17:35:54.710Z,96234.69
2023-01-18T17:38:25.158Z,96248.56
2023-01-18T17:40:53.423Z,96231.25
2023-01-18T17:43:33.355Z,96243.25
2023-01-18T17:46:06.427Z,96235.00
2023-01-18T17:48:34.816Z,96232.97
2023-01-18T17:51:09.795Z,96236.38
2023-01-18T17:53:39.940Z,96240.09
2023-01-18T17:56:14.043Z,96257.50
2023-01-18T17:58:42.314Z,96279.56
2023-01-18T18:01:13.626Z,96263.13
2023-01-18T18:03:48.082Z,96270.88
2023-01-18T18:06:26.060Z,96269.47
2023-01-18T18:08:58.483Z,96273.22
2023-01-18T18:11:26.109Z,96280.53
2023-01-18T18:13:54.387Z,96283.97
2023-01-18T18:16:22.501Z,96284.44
2023-01-18T18:18:51.886Z,96298.72
2023-01-18T18:21:19.592Z,96295.88
2023-01-18T18:23:47.376Z,96293.03
2023-01-18T18:26:14.862Z,96294.25
2023-01-18T18:28:42.811Z,96285.31
2023-01-18T18:31:16.202Z,96298.72
2023-01-18T18:33:45.163Z,96294.56
2023-01-18T18:36:12.433Z,96305.84
2023-01-18T18:38:40.188Z,96306.50
2023-01-18T18:41:09.073Z,96312.13
2023-01-18T18:43:36.785Z,96322.44
2023-01-18T18:46:04.136Z,96319.53
2023-01-18T18:48:31.779Z,96319.88
2023-01-18T18:50:59.093Z,96317.00
2023-01-18T18:53:37.586Z,96314.97
2023-01-18T18:56:09.685Z,96315.56
2023-01-18T18:58:41.307Z,96320.13
2023-01-18T19:01:21.601Z,96322.28
2023-01-18T19:03:51.976Z,96319.34
2023-01-18T19:06:22.335Z,96329.56
2023-01-18T19:08:50.739Z,96339.72
2023-01-18T19:11:18.851Z,96356.00
2023-01-18T19:13:49.340Z,96358.75
2023-01-18T19:16:17.369Z,96368.91
2023-01-18T19:18:45.243Z,96364.88
2023-01-18T19:21:12.691Z,96365.81
2023-01-18T19:23:40.559Z,96366.16
2023-01-18T19:26:07.937Z,96371.91
2023-01-18T19:28:36.747Z,96366.44
2023-01-18T19:31:06.659Z,96364.81
2023-01-18T19:33:35.106Z,96372.25
2023-01-18T19:36:13.449Z,96372.47
2023-01-18T19:38:46.036Z,96384.00
2023-01-18T19:41:15.020Z,96388.25
2023-01-18T19:43:45.773Z,96385.69
2023-01-18T19:46:15.394Z,96383.91
2023-01-18T19:48:44.040Z,96390.44
2023-01-18T19:51:22.636Z,96384.84
2023-01-18T19:53:54.623Z,96391.69
2023-01-18T19:56:24.459Z,96386.31
2023-01-18T19:58:52.290Z,96387.56
2023-01-18T20:01:35.133Z,96391.06
2023-01-18T20:04:06.232Z,96399.53
2023-01-18T20:06:37.583Z,96400.66
2023-01-18T20:09:17.705Z,96400.16
2023-01-18T20:11:46.652Z,96393.13
2023-01-18T20:14:14.709Z,96402.00
2023-01-18T20:16:44.618Z,96407.91
2023-01-18T20:19:20.296Z,96412.84
2023-01-18T20:21:48.368Z,96427.41
2023-01-18T20:24:16.497Z,96421.44
2023-01-18T20:26:44.345Z,96435.44
2023-01-18T20:29:13.202Z,96440.19
2023-01-18T20:31:44.637Z,96453.50
2023-01-18T20:34:16.272Z,96460.41
2023-01-18T20:36:46.109Z,96463.53
2023-01-18T20:39:14.083Z,96461.88
2023-01-18T20:41:41.736Z,96444.31
2023-01-18T20:44:09.688Z,96439.97
2023-01-18T20:46:37.499Z,96434.72
2023-01-18T20:49:05.196Z,96440.47
2023-01-18T20:51:33.602Z,96440.81
2023-01-18T20:54:02.356Z,96445.75
2023-01-18T20:56:32.176Z,96441.03
2023-01-18T20:58:59.924Z,96451.63
2023-01-18T21:01:32.807Z,96452.16
2023-01-18T21:04:03.987Z,96454.53
2023-01-18T21:06:32.569Z,96461.13
2023-01-18T21:09:01.339Z,96457.72
2023-01-18T21:11:29.158Z,96454.81
2023-01-18T21:13:59.406Z,96442.41
2023-01-18T21:16:27.855Z,96435.72
2023-01-18T21:18:56.580Z,96430.66
2023-01-18T21:21:26.843Z,96436.75
2023-01-18T21:23:54.572Z,96437.47
2023-01-18T21:26:21.951Z,96438.50
2023-01-18T21:28:49.700Z,96442.13
2023-01-18T21:31:17.106Z,96451.50
2023-01-18T21:33:44.988Z,96450.28
2023-01-18T21:36:17.854Z,96465.13
2023-01-18T21:38:46.216Z,96465.88
2023-01-18T21:41:32.422Z,96470.09
2023-01-18T21:44:18.640Z,96472.69
2023-01-18T21:46:48.399Z,96484.94
2023-01-18T21:52:40.590Z,96507.22
2023-01-18T21:55:08.857Z,96511.22
2023-01-18T21:57:36.785Z,96519.72
2023-01-18T22:00:05.904Z,96534.97
2023-01-18T22:02:34.513Z,96565.38
2023-01-18T22:05:05.335Z,96579.50
2023-01-18T22:07:34.596Z,96561.38
2023-01-18T22:10:06.984Z,96563.94
2023-01-18T22:12:36.522Z,96574.47
2023-01-18T22:15:05.747Z,96562.50
2023-01-18T22:17:33.094Z,96567.00
2023-01-18T22:20:02.044Z,96563.31
2023-01-18T22:22:29.537Z,96566.31
2023-01-18T22:25:00.236Z,96568.97
2023-01-18T22:27:27.905Z,96571.66
2023-01-18T22:29:55.539Z,96576.94
2023-01-18T22:32:22.981Z,96577.53
2023-01-18T22:34:50.615Z,96581.06
2023-01-18T22:37:17.935Z,96581.50
2023-01-18T22:39:45.579Z,96587.69
2023-01-18T22:42:12.892Z,96586.06
2023-01-18T22:44:40.518Z,96601.44
2023-01-18T22:47:07.945Z,96603.47
2023-01-18T22:49:35.570Z,96609.66
2023-01-18T22:52:02.884Z,96610.44
2023-01-18T22:54:30.554Z,96613.75
2023-01-18T22:56:57.832Z,96619.22
2023-01-18T22:59:25.483Z,96606.97
2023-01-18T23:01:52.812Z,96608.47
2023-01-18T23:04:20.704Z,96604.69
2023-01-18T23:06:50.820Z,96606.00
2023-01-18T23:09:18.799Z,96609.84
2023-01-18T23:11:48.100Z,96616.47
2023-01-18T23:14:54.312Z,96615.94
2023-01-18T23:17:39.840Z,96609.47
2023-01-18T23:20:16.287Z,96611.13
2023-01-18T23:22:45.128Z,96621.44
2023-01-18T23:25:12.921Z,96627.72
2023-01-18T23:27:40.253Z,96622.69
2023-01-18T23:30:08.980Z,96626.78
2023-01-18T23:32:37.460Z,96625.97
2023-01-18T23:35:06.314Z,96629.38
2023-01-18T23:37:33.872Z,96635.28
2023-01-18T23:40:20.488Z,96637.66
2023-01-18T23:43:06.280Z,96633.00
2023-01-18T23:45:52.496Z,96629.00
2023-01-18T23:48:38.927Z,96630.03
2023-01-18T23:51:27.706Z,96626.41
2023-01-18T23:54:15.549Z,96624.16
2023-01-18T23:56:45.712Z,96624.03
2023-01-18T23:59:14.209Z,96618.34
